sensor_id;sensor_type;location;lat;lon;timestamp;temperature;humidity
58409;DHT22;44202;52.730;6.470;2022-08-01T00:01:50;17.80;99.90
58409;DHT22;44202;52.730;6.470;2022-08-01T00:04:16;17.70;99.90
58409;DHT22;44202;52.730;6.470;2022-08-01T00:06:41;17.80;99.90
58409;DHT22;44202;52.730;6.470;2022-08-01T00:09:07;17.70;99.90
58409;DHT22;44202;52.730;6.470;2022-08-01T00:11:33;17.70;99.90
58409;DHT22;44202;52.730;6.470;2022-08-01T00:13:58;17.70;99.90
58409;DHT22;44202;52.730;6.470;2022-08-01T00:16:24;17.60;99.90
58409;DHT22;44202;52.730;6.470;2022-08-01T00:18:51;17.60;99.90
58409;DHT22;44202;52.730;6.470;2022-08-01T00:21:17;17.60;99.90
58409;DHT22;44202;52.730;6.470;2022-08-01T00:23:43;17.60;99.90
58409;DHT22;44202;52.730;6.470;2022-08-01T00:26:11;17.60;99.90
58409;DHT22;44202;52.730;6.470;2022-08-01T00:28:37;17.60;99.90
58409;DHT22;44202;52.730;6.470;2022-08-01T00:31:03;17.60;99.90
58409;DHT22;44202;52.730;6.470;2022-08-01T00:33:29;17.60;99.90
58409;DHT22;44202;52.730;6.470;2022-08-01T00:35:54;17.60;99.90
58409;DHT22;44202;52.730;6.470;2022-08-01T00:38:20;17.60;99.90
58409;DHT22;44202;52.730;6.470;2022-08-01T00:40:46;17.60;99.90
58409;DHT22;44202;52.730;6.470;2022-08-01T00:43:11;17.60;99.90
58409;DHT22;44202;52.730;6.470;2022-08-01T00:45:37;17.70;99.90
58409;DHT22;44202;52.730;6.470;2022-08-01T00:48:03;17.50;99.90
58409;DHT22;44202;52.730;6.470;2022-08-01T00:50:29;17.60;99.90
58409;DHT22;44202;52.730;6.470;2022-08-01T00:52:55;17.50;99.90
58409;DHT22;44202;52.730;6.470;2022-08-01T00:55:21;17.60;99.90
58409;DHT22;44202;52.730;6.470;2022-08-01T00:57:47;17.50;99.90
58409;DHT22;44202;52.730;6.470;2022-08-01T01:00:14;17.50;99.90
58409;DHT22;44202;52.730;6.470;2022-08-01T01:02:39;17.60;99.90
58409;DHT22;44202;52.730;6.470;2022-08-01T01:05:06;17.50;99.90
58409;DHT22;44202;52.730;6.470;2022-08-01T01:10:15;17.60;99.90
58409;DHT22;44202;52.730;6.470;2022-08-01T01:12:55;17.60;99.90
58409;DHT22;44202;52.730;6.470;2022-08-01T01:15:40;17.60;99.90
58409;DHT22;44202;52.730;6.470;2022-08-01T01:18:24;17.60;99.90
58409;DHT22;44202;52.730;6.470;2022-08-01T01:29:16;17.60;99.90
58409;DHT22;44202;52.730;6.470;2022-08-01T01:31:53;17.50;99.90
58409;DHT22;44202;52.730;6.470;2022-08-01T01:34:21;17.50;99.90
58409;DHT22;44202;52.730;6.470;2022-08-01T01:36:50;17.50;99.90
58409;DHT22;44202;52.730;6.470;2022-08-01T01:39:18;17.50;99.90
58409;DHT22;44202;52.730;6.470;2022-08-01T01:41:46;17.70;99.90
58409;DHT22;44202;52.730;6.470;2022-08-01T01:44:15;17.60;99.90
58409;DHT22;44202;52.730;6.470;2022-08-01T01:46:41;17.60;99.90
58409;DHT22;44202;52.730;6.470;2022-08-01T01:49:08;17.50;99.90
58409;DHT22;44202;52.730;6.470;2022-08-01T01:51:37;17.50;99.90
58409;DHT22;44202;52.730;6.470;2022-08-01T01:54:04;17.60;99.90
58409;DHT22;44202;52.730;6.470;2022-08-01T01:56:30;17.50;99.90
58409;DHT22;44202;52.730;6.470;2022-08-01T01:59:01;17.50;99.90
58409;DHT22;44202;52.730;6.470;2022-08-01T02:01:32;17.40;99.90
58409;DHT22;44202;52.730;6.470;2022-08-01T02:04:00;17.50;99.90
58409;DHT22;44202;52.730;6.470;2022-08-01T02:06:28;17.50;99.90
58409;DHT22;44202;52.730;6.470;2022-08-01T02:08:55;17.50;99.90
58409;DHT22;44202;52.730;6.470;2022-08-01T02:11:22;17.40;99.90
58409;DHT22;44202;52.730;6.470;2022-08-01T02:14:01;17.40;99.90
58409;DHT22;44202;52.730;6.470;2022-08-01T02:16:31;17.50;99.90
58409;DHT22;44202;52.730;6.470;2022-08-01T02:18:59;17.50;99.90
58409;DHT22;44202;52.730;6.470;2022-08-01T02:21:39;17.50;99.90
58409;DHT22;44202;52.730;6.470;2022-08-01T02:24:13;17.40;99.90
58409;DHT22;44202;52.730;6.470;2022-08-01T02:26:46;17.30;99.90
58409;DHT22;44202;52.730;6.470;2022-08-01T02:29:19;17.30;99.90
58409;DHT22;44202;52.730;6.470;2022-08-01T02:31:46;17.30;99.90
58409;DHT22;44202;52.730;6.470;2022-08-01T02:34:16;17.40;99.90
58409;DHT22;44202;52.730;6.470;2022-08-01T02:36:44;17.30;99.90
58409;DHT22;44202;52.730;6.470;2022-08-01T02:39:13;17.30;99.90
58409;DHT22;44202;52.730;6.470;2022-08-01T02:41:41;17.30;99.90
58409;DHT22;44202;52.730;6.470;2022-08-01T02:44:09;17.30;99.90
58409;DHT22;44202;52.730;6.470;2022-08-01T02:46:39;17.30;99.90
58409;DHT22;44202;52.730;6.470;2022-08-01T02:49:07;17.30;99.90
58409;DHT22;44202;52.730;6.470;2022-08-01T02:51:35;17.30;99.90
58409;DHT22;44202;52.730;6.470;2022-08-01T02:54:02;17.30;99.90
58409;DHT22;44202;52.730;6.470;2022-08-01T02:56:30;17.30;99.90
58409;DHT22;44202;52.730;6.470;2022-08-01T02:59:08;17.30;99.90
58409;DHT22;44202;52.730;6.470;2022-08-01T03:01:37;17.30;99.90
58409;DHT22;44202;52.730;6.470;2022-08-01T03:04:05;17.30;99.90
58409;DHT22;44202;52.730;6.470;2022-08-01T03:06:32;17.30;99.90
58409;DHT22;44202;52.730;6.470;2022-08-01T03:09:00;17.30;99.90
58409;DHT22;44202;52.730;6.470;2022-08-01T03:11:28;17.30;99.90
58409;DHT22;44202;52.730;6.470;2022-08-01T03:13:55;17.30;99.90
58409;DHT22;44202;52.730;6.470;2022-08-01T03:16:23;17.30;99.90
58409;DHT22;44202;52.730;6.470;2022-08-01T03:18:53;17.30;99.90
58409;DHT22;44202;52.730;6.470;2022-08-01T03:21:21;17.30;99.90
58409;DHT22;44202;52.730;6.470;2022-08-01T03:23:50;17.30;99.90
58409;DHT22;44202;52.730;6.470;2022-08-01T03:26:17;17.30;99.90
58409;DHT22;44202;52.730;6.470;2022-08-01T03:28:46;17.20;99.90
58409;DHT22;44202;52.730;6.470;2022-08-01T03:31:14;17.20;99.90
58409;DHT22;44202;52.730;6.470;2022-08-01T03:33:40;17.20;99.90
58409;DHT22;44202;52.730;6.470;2022-08-01T03:36:09;17.10;99.90
58409;DHT22;44202;52.730;6.470;2022-08-01T03:38:37;17.10;99.90
58409;DHT22;44202;52.730;6.470;2022-08-01T03:41:11;17.00;99.90
58409;DHT22;44202;52.730;6.470;2022-08-01T03:43:41;17.00;99.90
58409;DHT22;44202;52.730;6.470;2022-08-01T03:46:13;16.90;99.90
58409;DHT22;44202;52.730;6.470;2022-08-01T03:48:48;16.80;99.90
58409;DHT22;44202;52.730;6.470;2022-08-01T03:51:14;16.80;99.90
58409;DHT22;44202;52.730;6.470;2022-08-01T03:53:42;16.80;99.90
58409;DHT22;44202;52.730;6.470;2022-08-01T03:56:08;16.80;99.90
58409;DHT22;44202;52.730;6.470;2022-08-01T03:58:38;16.80;99.90
58409;DHT22;44202;52.730;6.470;2022-08-01T04:01:05;16.80;99.90
58409;DHT22;44202;52.730;6.470;2022-08-01T04:03:32;16.70;99.90
58409;DHT22;44202;52.730;6.470;2022-08-01T04:05:58;16.70;99.90
58409;DHT22;44202;52.730;6.470;2022-08-01T04:08:37;16.80;99.90
58409;DHT22;44202;52.730;6.470;2022-08-01T04:11:03;16.80;99.90
58409;DHT22;44202;52.730;6.470;2022-08-01T04:13:29;16.70;99.90
58409;DHT22;44202;52.730;6.470;2022-08-01T04:15:55;16.80;99.90
58409;DHT22;44202;52.730;6.470;2022-08-01T04:18:20;16.80;99.90
58409;DHT22;44202;52.730;6.470;2022-08-01T04:20:46;16.90;99.90
58409;DHT22;44202;52.730;6.470;2022-08-01T04:23:15;16.90;99.90
58409;DHT22;44202;52.730;6.470;2022-08-01T04:25:43;16.90;99.90
58409;DHT22;44202;52.730;6.470;2022-08-01T04:28:11;16.80;99.90
58409;DHT22;44202;52.730;6.470;2022-08-01T04:30:43;16.80;99.90
58409;DHT22;44202;52.730;6.470;2022-08-01T04:33:14;16.80;99.90
58409;DHT22;44202;52.730;6.470;2022-08-01T04:35:44;16.80;99.90
58409;DHT22;44202;52.730;6.470;2022-08-01T04:38:11;16.80;99.90
58409;DHT22;44202;52.730;6.470;2022-08-01T04:40:40;16.90;99.90
58409;DHT22;44202;52.730;6.470;2022-08-01T04:43:07;16.90;99.90
58409;DHT22;44202;52.730;6.470;2022-08-01T04:45:34;16.80;99.90
58409;DHT22;44202;52.730;6.470;2022-08-01T04:48:00;16.90;99.90
58409;DHT22;44202;52.730;6.470;2022-08-01T04:50:27;16.80;99.90
58409;DHT22;44202;52.730;6.470;2022-08-01T04:52:53;16.80;99.90
58409;DHT22;44202;52.730;6.470;2022-08-01T04:55:18;16.80;99.90
58409;DHT22;44202;52.730;6.470;2022-08-01T04:57:46;16.80;99.90
58409;DHT22;44202;52.730;6.470;2022-08-01T05:00:12;16.70;99.90
58409;DHT22;44202;52.730;6.470;2022-08-01T05:02:38;16.80;99.90
58409;DHT22;44202;52.730;6.470;2022-08-01T05:05:04;16.70;99.90
58409;DHT22;44202;52.730;6.470;2022-08-01T05:07:32;16.80;99.90
58409;DHT22;44202;52.730;6.470;2022-08-01T05:09:58;16.80;99.90
58409;DHT22;44202;52.730;6.470;2022-08-01T05:12:24;16.70;99.90
58409;DHT22;44202;52.730;6.470;2022-08-01T05:14:49;16.80;99.90
58409;DHT22;44202;52.730;6.470;2022-08-01T05:17:16;16.80;99.90
58409;DHT22;44202;52.730;6.470;2022-08-01T05:19:42;16.80;99.90
58409;DHT22;44202;52.730;6.470;2022-08-01T05:22:08;16.80;99.90
58409;DHT22;44202;52.730;6.470;2022-08-01T05:24:37;16.90;99.90
58409;DHT22;44202;52.730;6.470;2022-08-01T05:27:03;16.90;99.90
58409;DHT22;44202;52.730;6.470;2022-08-01T05:29:29;16.90;99.90
58409;DHT22;44202;52.730;6.470;2022-08-01T05:31:55;16.80;99.90
58409;DHT22;44202;52.730;6.470;2022-08-01T05:34:22;16.90;99.90
58409;DHT22;44202;52.730;6.470;2022-08-01T05:36:47;16.90;99.90
58409;DHT22;44202;52.730;6.470;2022-08-01T05:39:13;16.80;99.90
58409;DHT22;44202;52.730;6.470;2022-08-01T05:41:40;16.70;99.90
58409;DHT22;44202;52.730;6.470;2022-08-01T05:44:06;16.70;99.90
58409;DHT22;44202;52.730;6.470;2022-08-01T05:46:32;16.70;99.90
58409;DHT22;44202;52.730;6.470;2022-08-01T05:48:59;16.70;99.90
58409;DHT22;44202;52.730;6.470;2022-08-01T05:51:25;16.70;99.90
58409;DHT22;44202;52.730;6.470;2022-08-01T05:53:51;16.70;99.90
58409;DHT22;44202;52.730;6.470;2022-08-01T05:56:17;16.70;99.90
58409;DHT22;44202;52.730;6.470;2022-08-01T05:58:43;16.90;99.90
58409;DHT22;44202;52.730;6.470;2022-08-01T06:01:09;17.00;99.90
58409;DHT22;44202;52.730;6.470;2022-08-01T06:03:34;17.00;99.90
58409;DHT22;44202;52.730;6.470;2022-08-01T06:06:00;16.90;99.90
58409;DHT22;44202;52.730;6.470;2022-08-01T06:08:26;16.90;99.90
58409;DHT22;44202;52.730;6.470;2022-08-01T06:10:52;16.90;99.90
58409;DHT22;44202;52.730;6.470;2022-08-01T06:13:18;16.80;99.90
58409;DHT22;44202;52.730;6.470;2022-08-01T06:15:45;16.80;99.90
58409;DHT22;44202;52.730;6.470;2022-08-01T06:18:11;16.90;99.90
58409;DHT22;44202;52.730;6.470;2022-08-01T06:20:36;16.80;99.90
58409;DHT22;44202;52.730;6.470;2022-08-01T06:23:02;16.90;99.90
58409;DHT22;44202;52.730;6.470;2022-08-01T06:25:28;16.80;99.90
58409;DHT22;44202;52.730;6.470;2022-08-01T06:27:53;16.80;99.90
58409;DHT22;44202;52.730;6.470;2022-08-01T06:30:19;16.90;99.90
58409;DHT22;44202;52.730;6.470;2022-08-01T06:32:45;16.90;99.90
58409;DHT22;44202;52.730;6.470;2022-08-01T06:35:11;16.90;99.90
58409;DHT22;44202;52.730;6.470;2022-08-01T06:37:36;16.80;99.90
58409;DHT22;44202;52.730;6.470;2022-08-01T06:40:08;16.80;99.90
58409;DHT22;44202;52.730;6.470;2022-08-01T06:42:34;16.80;99.90
58409;DHT22;44202;52.730;6.470;2022-08-01T06:45:03;16.80;99.90
58409;DHT22;44202;52.730;6.470;2022-08-01T06:47:29;16.70;99.90
58409;DHT22;44202;52.730;6.470;2022-08-01T06:49:56;16.70;99.90
58409;DHT22;44202;52.730;6.470;2022-08-01T06:52:22;16.70;99.90
58409;DHT22;44202;52.730;6.470;2022-08-01T06:54:47;16.80;99.90
58409;DHT22;44202;52.730;6.470;2022-08-01T06:57:13;16.90;99.90
58409;DHT22;44202;52.730;6.470;2022-08-01T06:59:38;17.00;99.90
58409;DHT22;44202;52.730;6.470;2022-08-01T07:02:04;17.10;99.90
58409;DHT22;44202;52.730;6.470;2022-08-01T07:04:30;17.20;99.90
58409;DHT22;44202;52.730;6.470;2022-08-01T07:06:56;17.20;99.90
58409;DHT22;44202;52.730;6.470;2022-08-01T07:09:22;17.10;99.90
58409;DHT22;44202;52.730;6.470;2022-08-01T07:11:48;17.10;99.90
58409;DHT22;44202;52.730;6.470;2022-08-01T07:14:13;17.20;99.90
58409;DHT22;44202;52.730;6.470;2022-08-01T07:16:39;17.40;99.90
58409;DHT22;44202;52.730;6.470;2022-08-01T07:19:04;17.40;99.90
58409;DHT22;44202;52.730;6.470;2022-08-01T07:21:30;17.50;99.90
58409;DHT22;44202;52.730;6.470;2022-08-01T07:23:56;17.60;99.90
58409;DHT22;44202;52.730;6.470;2022-08-01T07:26:21;17.80;99.90
58409;DHT22;44202;52.730;6.470;2022-08-01T07:28:47;17.90;99.90
58409;DHT22;44202;52.730;6.470;2022-08-01T07:31:12;18.10;99.90
58409;DHT22;44202;52.730;6.470;2022-08-01T07:33:38;18.10;99.90
58409;DHT22;44202;52.730;6.470;2022-08-01T07:36:04;18.10;99.90
58409;DHT22;44202;52.730;6.470;2022-08-01T07:38:29;18.10;99.90
58409;DHT22;44202;52.730;6.470;2022-08-01T07:40:55;18.20;99.90
58409;DHT22;44202;52.730;6.470;2022-08-01T07:43:21;18.10;99.90
58409;DHT22;44202;52.730;6.470;2022-08-01T07:45:46;18.00;99.90
58409;DHT22;44202;52.730;6.470;2022-08-01T07:48:12;18.00;99.90
58409;DHT22;44202;52.730;6.470;2022-08-01T07:50:38;18.10;99.90
58409;DHT22;44202;52.730;6.470;2022-08-01T07:53:03;18.20;99.90
58409;DHT22;44202;52.730;6.470;2022-08-01T07:55:29;18.40;99.90
58409;DHT22;44202;52.730;6.470;2022-08-01T07:57:55;18.40;99.90
58409;DHT22;44202;52.730;6.470;2022-08-01T08:00:21;18.60;99.90
58409;DHT22;44202;52.730;6.470;2022-08-01T08:02:46;18.80;99.90
58409;DHT22;44202;52.730;6.470;2022-08-01T08:05:12;19.30;99.90
58409;DHT22;44202;52.730;6.470;2022-08-01T08:07:38;19.90;99.90
58409;DHT22;44202;52.730;6.470;2022-08-01T08:10:05;20.10;99.90
58409;DHT22;44202;52.730;6.470;2022-08-01T08:12:31;20.10;99.90
58409;DHT22;44202;52.730;6.470;2022-08-01T08:14:57;20.10;99.90
58409;DHT22;44202;52.730;6.470;2022-08-01T08:17:25;20.10;99.90
58409;DHT22;44202;52.730;6.470;2022-08-01T08:19:50;20.30;99.90
58409;DHT22;44202;52.730;6.470;2022-08-01T08:22:16;20.70;99.90
58409;DHT22;44202;52.730;6.470;2022-08-01T08:24:42;21.40;99.90
58409;DHT22;44202;52.730;6.470;2022-08-01T08:27:07;21.80;99.90
58409;DHT22;44202;52.730;6.470;2022-08-01T08:29:33;22.20;99.90
58409;DHT22;44202;52.730;6.470;2022-08-01T08:32:00;22.30;99.90
58409;DHT22;44202;52.730;6.470;2022-08-01T08:34:27;22.10;99.90
58409;DHT22;44202;52.730;6.470;2022-08-01T08:36:54;21.80;99.90
58409;DHT22;44202;52.730;6.470;2022-08-01T08:39:21;21.60;99.90
58409;DHT22;44202;52.730;6.470;2022-08-01T08:41:47;21.80;99.90
58409;DHT22;44202;52.730;6.470;2022-08-01T08:44:13;22.10;99.90
58409;DHT22;44202;52.730;6.470;2022-08-01T08:46:51;21.90;99.90
58409;DHT22;44202;52.730;6.470;2022-08-01T08:49:23;21.70;99.90
58409;DHT22;44202;52.730;6.470;2022-08-01T08:51:51;21.50;99.90
58409;DHT22;44202;52.730;6.470;2022-08-01T08:54:18;21.30;99.90
58409;DHT22;44202;52.730;6.470;2022-08-01T08:56:46;21.20;99.90
58409;DHT22;44202;52.730;6.470;2022-08-01T08:59:12;21.70;99.90
58409;DHT22;44202;52.730;6.470;2022-08-01T09:01:41;22.40;99.90
58409;DHT22;44202;52.730;6.470;2022-08-01T09:04:08;23.00;99.90
58409;DHT22;44202;52.730;6.470;2022-08-01T09:06:34;23.00;99.90
58409;DHT22;44202;52.730;6.470;2022-08-01T09:08:59;22.80;99.90
58409;DHT22;44202;52.730;6.470;2022-08-01T09:11:25;22.80;99.90
58409;DHT22;44202;52.730;6.470;2022-08-01T09:14:14;22.80;99.90
58409;DHT22;44202;52.730;6.470;2022-08-01T09:16:43;22.70;99.90
58409;DHT22;44202;52.730;6.470;2022-08-01T09:19:14;22.30;99.90
58409;DHT22;44202;52.730;6.470;2022-08-01T09:21:58;22.00;99.90
58409;DHT22;44202;52.730;6.470;2022-08-01T09:24:26;21.70;99.90
58409;DHT22;44202;52.730;6.470;2022-08-01T09:26:53;22.10;99.90
58409;DHT22;44202;52.730;6.470;2022-08-01T09:29:28;22.80;99.90
58409;DHT22;44202;52.730;6.470;2022-08-01T09:31:54;23.40;99.90
58409;DHT22;44202;52.730;6.470;2022-08-01T09:34:25;23.70;99.90
58409;DHT22;44202;52.730;6.470;2022-08-01T09:36:59;24.60;99.90
58409;DHT22;44202;52.730;6.470;2022-08-01T09:39:33;25.50;99.90
58409;DHT22;44202;52.730;6.470;2022-08-01T09:42:18;26.00;99.90
58409;DHT22;44202;52.730;6.470;2022-08-01T09:44:44;26.50;98.70
58409;DHT22;44202;52.730;6.470;2022-08-01T09:47:11;27.00;90.30
58409;DHT22;44202;52.730;6.470;2022-08-01T09:49:40;27.10;80.20
58409;DHT22;44202;52.730;6.470;2022-08-01T09:52:20;26.30;78.70
58409;DHT22;44202;52.730;6.470;2022-08-01T09:54:57;25.50;91.00
58409;DHT22;44202;52.730;6.470;2022-08-01T09:57:24;25.20;99.90
58409;DHT22;44202;52.730;6.470;2022-08-01T09:59:51;25.20;92.30
58409;DHT22;44202;52.730;6.470;2022-08-01T10:02:32;25.30;91.80
58409;DHT22;44202;52.730;6.470;2022-08-01T10:04:58;25.70;99.70
58409;DHT22;44202;52.730;6.470;2022-08-01T10:07:25;26.20;97.70
58409;DHT22;44202;52.730;6.470;2022-08-01T10:09:50;26.60;83.00
58409;DHT22;44202;52.730;6.470;2022-08-01T10:12:21;26.90;77.90
58409;DHT22;44202;52.730;6.470;2022-08-01T10:14:48;27.10;86.60
58409;DHT22;44202;52.730;6.470;2022-08-01T10:17:24;27.40;75.90
58409;DHT22;44202;52.730;6.470;2022-08-01T10:19:50;27.00;83.10
58409;DHT22;44202;52.730;6.470;2022-08-01T10:22:23;27.00;76.60
58409;DHT22;44202;52.730;6.470;2022-08-01T10:24:50;27.10;75.40
58409;DHT22;44202;52.730;6.470;2022-08-01T10:27:17;27.20;75.00
58409;DHT22;44202;52.730;6.470;2022-08-01T10:29:51;27.40;71.70
58409;DHT22;44202;52.730;6.470;2022-08-01T10:32:19;27.20;75.80
58409;DHT22;44202;52.730;6.470;2022-08-01T10:34:46;27.10;76.10
58409;DHT22;44202;52.730;6.470;2022-08-01T10:37:12;26.90;73.70
58409;DHT22;44202;52.730;6.470;2022-08-01T10:39:39;26.60;71.90
58409;DHT22;44202;52.730;6.470;2022-08-01T10:42:05;26.70;69.60
58409;DHT22;44202;52.730;6.470;2022-08-01T10:44:32;27.20;70.30
58409;DHT22;44202;52.730;6.470;2022-08-01T10:47:09;27.70;67.70
58409;DHT22;44202;52.730;6.470;2022-08-01T10:49:41;28.20;63.70
58409;DHT22;44202;52.730;6.470;2022-08-01T10:55:03;27.60;64.70
58409;DHT22;44202;52.730;6.470;2022-08-01T10:57:44;27.60;61.10
58409;DHT22;44202;52.730;6.470;2022-08-01T11:00:21;27.60;61.40
58409;DHT22;44202;52.730;6.470;2022-08-01T11:03:01;27.80;60.00
58409;DHT22;44202;52.730;6.470;2022-08-01T11:05:32;28.00;61.70
58409;DHT22;44202;52.730;6.470;2022-08-01T11:08:01;28.20;61.90
58409;DHT22;44202;52.730;6.470;2022-08-01T11:10:31;28.40;60.70
58409;DHT22;44202;52.730;6.470;2022-08-01T11:13:03;28.30;58.10
58409;DHT22;44202;52.730;6.470;2022-08-01T11:15:33;27.80;59.40
58409;DHT22;44202;52.730;6.470;2022-08-01T11:18:01;27.70;59.60
58409;DHT22;44202;52.730;6.470;2022-08-01T11:20:29;27.70;60.20
58409;DHT22;44202;52.730;6.470;2022-08-01T11:30:51;27.20;57.30
58409;DHT22;44202;52.730;6.470;2022-08-01T11:33:19;26.50;60.10
58409;DHT22;44202;52.730;6.470;2022-08-01T11:38:42;25.50;63.10
58409;DHT22;44202;52.730;6.470;2022-08-01T11:46:47;25.70;65.80
58409;DHT22;44202;52.730;6.470;2022-08-01T11:54:37;25.90;63.40
58409;DHT22;44202;52.730;6.470;2022-08-01T11:57:05;26.00;69.20
58409;DHT22;44202;52.730;6.470;2022-08-01T12:02:19;26.60;62.60
58409;DHT22;44202;52.730;6.470;2022-08-01T12:04:49;26.60;60.80
58409;DHT22;44202;52.730;6.470;2022-08-01T12:07:15;26.60;60.70
58409;DHT22;44202;52.730;6.470;2022-08-01T12:09:44;26.70;60.50
58409;DHT22;44202;52.730;6.470;2022-08-01T12:12:14;26.60;61.70
58409;DHT22;44202;52.730;6.470;2022-08-01T12:14:40;26.60;60.80
58409;DHT22;44202;52.730;6.470;2022-08-01T12:17:05;26.50;60.80
58409;DHT22;44202;52.730;6.470;2022-08-01T12:19:31;26.30;62.20
58409;DHT22;44202;52.730;6.470;2022-08-01T12:22:17;26.20;61.50
58409;DHT22;44202;52.730;6.470;2022-08-01T12:24:47;26.20;62.00
58409;DHT22;44202;52.730;6.470;2022-08-01T12:27:30;25.70;61.40
58409;DHT22;44202;52.730;6.470;2022-08-01T12:29:57;25.30;60.20
58409;DHT22;44202;52.730;6.470;2022-08-01T12:32:30;24.90;63.40
58409;DHT22;44202;52.730;6.470;2022-08-01T12:35:01;24.50;64.60
58409;DHT22;44202;52.730;6.470;2022-08-01T12:37:27;24.30;69.60
58409;DHT22;44202;52.730;6.470;2022-08-01T12:39:53;24.40;69.30
58409;DHT22;44202;52.730;6.470;2022-08-01T12:42:19;24.50;67.10
58409;DHT22;44202;52.730;6.470;2022-08-01T12:44:48;24.90;67.50
58409;DHT22;44202;52.730;6.470;2022-08-01T12:47:17;25.40;68.80
58409;DHT22;44202;52.730;6.470;2022-08-01T12:49:43;25.70;68.70
58409;DHT22;44202;52.730;6.470;2022-08-01T12:52:10;25.60;69.60
58409;DHT22;44202;52.730;6.470;2022-08-01T12:57:27;25.00;64.40
58409;DHT22;44202;52.730;6.470;2022-08-01T13:00:10;24.80;66.90
58409;DHT22;44202;52.730;6.470;2022-08-01T13:02:36;24.90;64.70
58409;DHT22;44202;52.730;6.470;2022-08-01T13:05:04;25.00;69.10
58409;DHT22;44202;52.730;6.470;2022-08-01T13:07:37;25.30;71.30
58409;DHT22;44202;52.730;6.470;2022-08-01T13:10:03;25.60;73.30
58409;DHT22;44202;52.730;6.470;2022-08-01T13:12:30;25.90;65.60
58409;DHT22;44202;52.730;6.470;2022-08-01T13:14:55;25.90;65.20
58409;DHT22;44202;52.730;6.470;2022-08-01T13:17:34;25.80;63.30
58409;DHT22;44202;52.730;6.470;2022-08-01T13:20:05;25.50;61.70
58409;DHT22;44202;52.730;6.470;2022-08-01T13:22:35;25.00;62.70
58409;DHT22;44202;52.730;6.470;2022-08-01T13:25:15;24.90;67.80
58409;DHT22;44202;52.730;6.470;2022-08-01T13:27:42;24.90;74.90
58409;DHT22;44202;52.730;6.470;2022-08-01T13:30:18;25.10;68.00
58409;DHT22;44202;52.730;6.470;2022-08-01T13:33:00;25.30;69.40
58409;DHT22;44202;52.730;6.470;2022-08-01T13:35:26;25.40;69.10
58409;DHT22;44202;52.730;6.470;2022-08-01T13:37:52;25.60;70.10
58409;DHT22;44202;52.730;6.470;2022-08-01T13:40:26;25.60;68.00
58409;DHT22;44202;52.730;6.470;2022-08-01T13:42:55;25.60;66.60
58409;DHT22;44202;52.730;6.470;2022-08-01T13:45:22;25.20;66.40
58409;DHT22;44202;52.730;6.470;2022-08-01T13:47:48;24.80;66.30
58409;DHT22;44202;52.730;6.470;2022-08-01T13:50:14;24.40;68.00
58409;DHT22;44202;52.730;6.470;2022-08-01T13:52:40;24.10;66.30
58409;DHT22;44202;52.730;6.470;2022-08-01T13:55:06;23.90;67.30
58409;DHT22;44202;52.730;6.470;2022-08-01T13:57:32;23.70;67.60
58409;DHT22;44202;52.730;6.470;2022-08-01T13:59:57;23.70;66.40
58409;DHT22;44202;52.730;6.470;2022-08-01T14:02:26;23.80;65.60
58409;DHT22;44202;52.730;6.470;2022-08-01T14:04:53;23.90;72.00
58409;DHT22;44202;52.730;6.470;2022-08-01T14:07:20;24.00;72.00
58409;DHT22;44202;52.730;6.470;2022-08-01T14:09:45;23.90;66.80
58409;DHT22;44202;52.730;6.470;2022-08-01T14:12:11;23.90;68.20
58409;DHT22;44202;52.730;6.470;2022-08-01T14:14:37;23.90;67.90
58409;DHT22;44202;52.730;6.470;2022-08-01T14:17:03;23.80;72.40
58409;DHT22;44202;52.730;6.470;2022-08-01T14:19:30;24.00;70.70
58409;DHT22;44202;52.730;6.470;2022-08-01T14:21:56;24.30;66.00
58409;DHT22;44202;52.730;6.470;2022-08-01T14:24:22;24.60;62.70
58409;DHT22;44202;52.730;6.470;2022-08-01T14:26:49;24.70;60.00
58409;DHT22;44202;52.730;6.470;2022-08-01T14:29:14;24.80;59.50
58409;DHT22;44202;52.730;6.470;2022-08-01T14:31:40;24.80;59.80
58409;DHT22;44202;52.730;6.470;2022-08-01T14:34:06;24.80;59.80
58409;DHT22;44202;52.730;6.470;2022-08-01T14:36:32;24.90;59.50
58409;DHT22;44202;52.730;6.470;2022-08-01T14:38:58;25.10;59.40
58409;DHT22;44202;52.730;6.470;2022-08-01T14:41:24;25.30;58.60
58409;DHT22;44202;52.730;6.470;2022-08-01T14:43:50;25.40;60.50
58409;DHT22;44202;52.730;6.470;2022-08-01T14:46:15;25.40;59.70
58409;DHT22;44202;52.730;6.470;2022-08-01T14:48:41;25.60;59.00
58409;DHT22;44202;52.730;6.470;2022-08-01T14:51:07;25.90;58.70
58409;DHT22;44202;52.730;6.470;2022-08-01T14:53:33;26.40;58.20
58409;DHT22;44202;52.730;6.470;2022-08-01T14:56:01;26.70;54.70
58409;DHT22;44202;52.730;6.470;2022-08-01T14:58:26;27.00;55.00
58409;DHT22;44202;52.730;6.470;2022-08-01T15:00:52;27.30;54.40
58409;DHT22;44202;52.730;6.470;2022-08-01T15:03:21;27.70;53.60
58409;DHT22;44202;52.730;6.470;2022-08-01T15:05:47;27.70;52.80
58409;DHT22;44202;52.730;6.470;2022-08-01T15:08:13;27.20;53.80
58409;DHT22;44202;52.730;6.470;2022-08-01T15:10:39;26.60;54.90
58409;DHT22;44202;52.730;6.470;2022-08-01T15:13:07;26.00;54.50
58409;DHT22;44202;52.730;6.470;2022-08-01T15:15:33;25.60;55.20
58409;DHT22;44202;52.730;6.470;2022-08-01T15:17:59;25.40;55.50
58409;DHT22;44202;52.730;6.470;2022-08-01T15:20:26;25.00;56.40
58409;DHT22;44202;52.730;6.470;2022-08-01T15:22:53;24.80;57.50
58409;DHT22;44202;52.730;6.470;2022-08-01T15:25:19;24.80;57.90
58409;DHT22;44202;52.730;6.470;2022-08-01T15:27:45;25.10;57.20
58409;DHT22;44202;52.730;6.470;2022-08-01T15:30:11;25.60;57.70
58409;DHT22;44202;52.730;6.470;2022-08-01T15:32:37;26.10;59.30
58409;DHT22;44202;52.730;6.470;2022-08-01T15:35:04;26.70;59.10
58409;DHT22;44202;52.730;6.470;2022-08-01T15:37:31;27.30;57.10
58409;DHT22;44202;52.730;6.470;2022-08-01T15:39:57;27.60;54.70
58409;DHT22;44202;52.730;6.470;2022-08-01T15:42:23;27.80;53.80
58409;DHT22;44202;52.730;6.470;2022-08-01T15:44:48;27.90;54.20
58409;DHT22;44202;52.730;6.470;2022-08-01T15:47:14;28.10;53.30
58409;DHT22;44202;52.730;6.470;2022-08-01T15:49:39;28.40;53.50
58409;DHT22;44202;52.730;6.470;2022-08-01T15:52:06;28.70;52.50
58409;DHT22;44202;52.730;6.470;2022-08-01T15:54:33;28.90;52.00
58409;DHT22;44202;52.730;6.470;2022-08-01T15:56:58;28.90;51.30
58409;DHT22;44202;52.730;6.470;2022-08-01T15:59:24;28.70;50.40
58409;DHT22;44202;52.730;6.470;2022-08-01T16:01:50;28.50;49.60
58409;DHT22;44202;52.730;6.470;2022-08-01T16:04:17;28.50;50.50
58409;DHT22;44202;52.730;6.470;2022-08-01T16:06:47;28.50;50.00
58409;DHT22;44202;52.730;6.470;2022-08-01T16:09:14;28.60;49.90
58409;DHT22;44202;52.730;6.470;2022-08-01T16:11:40;28.60;49.90
58409;DHT22;44202;52.730;6.470;2022-08-01T16:14:05;28.90;49.80
58409;DHT22;44202;52.730;6.470;2022-08-01T16:16:31;29.10;49.00